sensor_id;sensor_type;location;lat;lon;timestamp;P1;durP1;ratioP1;P2;durP2;ratioP2
4806;SDS011;2417;52.482;13.432;2023-12-22T00:01:40;10.23;;;2.13;;
4806;SDS011;2417;52.482;13.432;2023-12-22T00:04:10;9.07;;;1.83;;
4806;SDS011;2417;52.482;13.432;2023-12-22T00:06:39;8.67;;;1.80;;
4806;SDS011;2417;52.482;13.432;2023-12-22T00:09:07;8.40;;;2.07;;
4806;SDS011;2417;52.482;13.432;2023-12-22T00:11:35;8.23;;;2.00;;
4806;SDS011;2417;52.482;13.432;2023-12-22T00:14:03;12.20;;;1.60;;
4806;SDS011;2417;52.482;13.432;2023-12-22T00:16:31;8.13;;;1.40;;
4806;SDS011;2417;52.482;13.432;2023-12-22T00:18:59;7.73;;;1.60;;
4806;SDS011;2417;52.482;13.432;2023-12-22T00:21:28;15.80;;;2.13;;
4806;SDS011;2417;52.482;13.432;2023-12-22T00:23:56;13.93;;;1.93;;
4806;SDS011;2417;52.482;13.432;2023-12-22T00:26:24;8.57;;;1.93;;
4806;SDS011;2417;52.482;13.432;2023-12-22T00:28:52;12.27;;;2.63;;
4806;SDS011;2417;52.482;13.432;2023-12-22T00:31:20;13.50;;;2.20;;
4806;SDS011;2417;52.482;13.432;2023-12-22T00:33:48;14.97;;;2.40;;
4806;SDS011;2417;52.482;13.432;2023-12-22T00:36:16;7.20;;;2.10;;
4806;SDS011;2417;52.482;13.432;2023-12-22T00:38:45;10.57;;;2.27;;
4806;SDS011;2417;52.482;13.432;2023-12-22T00:41:14;12.60;;;2.37;;
4806;SDS011;2417;52.482;13.432;2023-12-22T00:43:42;11.70;;;1.97;;
4806;SDS011;2417;52.482;13.432;2023-12-22T00:46:10;12.80;;;2.63;;
4806;SDS011;2417;52.482;13.432;2023-12-22T00:48:38;19.13;;;2.70;;
4806;SDS011;2417;52.482;13.432;2023-12-22T00:51:06;12.90;;;2.07;;
4806;SDS011;2417;52.482;13.432;2023-12-22T00:53:34;14.43;;;3.07;;
4806;SDS011;2417;52.482;13.432;2023-12-22T00:56:04;7.50;;;2.30;;
4806;SDS011;2417;52.482;13.432;2023-12-22T00:58:33;15.83;;;2.73;;
4806;SDS011;2417;52.482;13.432;2023-12-22T01:01:01;15.03;;;2.97;;
4806;SDS011;2417;52.482;13.432;2023-12-22T01:03:29;13.43;;;1.97;;
4806;SDS011;2417;52.482;13.432;2023-12-22T01:05:56;9.43;;;1.80;;
4806;SDS011;2417;52.482;13.432;2023-12-22T01:08:25;7.83;;;1.60;;
4806;SDS011;2417;52.482;13.432;2023-12-22T01:10:53;9.93;;;2.00;;
4806;SDS011;2417;52.482;13.432;2023-12-22T01:13:23;11.90;;;2.17;;
4806;SDS011;2417;52.482;13.432;2023-12-22T01:15:51;11.30;;;2.03;;
4806;SDS011;2417;52.482;13.432;2023-12-22T01:18:18;7.73;;;1.87;;
4806;SDS011;2417;52.482;13.432;2023-12-22T01:20:46;13.50;;;2.00;;
4806;SDS011;2417;52.482;13.432;2023-12-22T01:23:17;9.67;;;1.43;;
4806;SDS011;2417;52.482;13.432;2023-12-22T01:25:44;8.57;;;1.77;;
4806;SDS011;2417;52.482;13.432;2023-12-22T01:28:12;14.37;;;3.00;;
4806;SDS011;2417;52.482;13.432;2023-12-22T01:30:42;11.03;;;1.50;;
4806;SDS011;2417;52.482;13.432;2023-12-22T01:33:10;15.20;;;1.90;;
4806;SDS011;2417;52.482;13.432;2023-12-22T01:35:37;11.77;;;2.40;;
4806;SDS011;2417;52.482;13.432;2023-12-22T01:38:05;11.83;;;2.20;;
4806;SDS011;2417;52.482;13.432;2023-12-22T01:40:34;12.53;;;2.20;;
4806;SDS011;2417;52.482;13.432;2023-12-22T01:43:03;13.93;;;2.13;;
4806;SDS011;2417;52.482;13.432;2023-12-22T01:45:30;11.33;;;2.10;;
4806;SDS011;2417;52.482;13.432;2023-12-22T01:48:02;5.63;;;2.03;;
4806;SDS011;2417;52.482;13.432;2023-12-22T01:50:30;7.37;;;2.17;;
4806;SDS011;2417;52.482;13.432;2023-12-22T01:52:59;13.73;;;2.37;;
4806;SDS011;2417;52.482;13.432;2023-12-22T01:55:26;16.93;;;1.90;;
4806;SDS011;2417;52.482;13.432;2023-12-22T01:57:54;13.23;;;2.10;;
4806;SDS011;2417;52.482;13.432;2023-12-22T02:00:22;8.03;;;1.70;;
4806;SDS011;2417;52.482;13.432;2023-12-22T02:02:50;9.87;;;2.50;;
4806;SDS011;2417;52.482;13.432;2023-12-22T02:05:20;13.80;;;2.80;;
4806;SDS011;2417;52.482;13.432;2023-12-22T02:07:48;9.40;;;2.17;;
4806;SDS011;2417;52.482;13.432;2023-12-22T02:10:17;15.73;;;2.40;;
4806;SDS011;2417;52.482;13.432;2023-12-22T02:12:45;7.77;;;1.90;;
4806;SDS011;2417;52.482;13.432;2023-12-22T02:15:13;14.73;;;2.70;;
4806;SDS011;2417;52.482;13.432;2023-12-22T02:17:43;13.63;;;2.20;;
4806;SDS011;2417;52.482;13.432;2023-12-22T02:20:12;12.13;;;2.17;;
4806;SDS011;2417;52.482;13.432;2023-12-22T02:22:42;10.67;;;1.90;;
4806;SDS011;2417;52.482;13.432;2023-12-22T02:25:10;12.07;;;2.17;;
4806;SDS011;2417;52.482;13.432;2023-12-22T02:27:39;14.40;;;2.00;;
4806;SDS011;2417;52.482;13.432;2023-12-22T02:30:09;13.63;;;1.90;;
4806;SDS011;2417;52.482;13.432;2023-12-22T02:32:42;14.43;;;2.23;;
4806;SDS011;2417;52.482;13.432;2023-12-22T02:35:14;17.07;;;2.90;;
4806;SDS011;2417;52.482;13.432;2023-12-22T02:37:44;12.10;;;2.37;;
4806;SDS011;2417;52.482;13.432;2023-12-22T02:40:16;9.97;;;1.70;;
4806;SDS011;2417;52.482;13.432;2023-12-22T02:42:44;10.50;;;2.00;;
4806;SDS011;2417;52.482;13.432;2023-12-22T02:45:13;9.73;;;1.87;;
4806;SDS011;2417;52.482;13.432;2023-12-22T02:47:41;9.17;;;1.80;;
4806;SDS011;2417;52.482;13.432;2023-12-22T02:50:09;12.03;;;1.90;;
4806;SDS011;2417;52.482;13.432;2023-12-22T02:52:37;29.33;;;3.97;;
4806;SDS011;2417;52.482;13.432;2023-12-22T02:55:07;6.80;;;1.67;;
4806;SDS011;2417;52.482;13.432;2023-12-22T02:57:35;8.53;;;1.40;;
4806;SDS011;2417;52.482;13.432;2023-12-22T03:00:03;9.43;;;1.70;;
4806;SDS011;2417;52.482;13.432;2023-12-22T03:02:31;10.30;;;1.50;;
4806;SDS011;2417;52.482;13.432;2023-12-22T03:04:59;6.77;;;1.67;;
4806;SDS011;2417;52.482;13.432;2023-12-22T03:07:27;14.50;;;1.57;;
4806;SDS011;2417;52.482;13.432;2023-12-22T03:09:55;8.57;;;1.70;;
4806;SDS011;2417;52.482;13.432;2023-12-22T03:12:24;10.10;;;1.47;;
4806;SDS011;2417;52.482;13.432;2023-12-22T03:14:53;9.80;;;1.60;;
4806;SDS011;2417;52.482;13.432;2023-12-22T03:17:20;5.23;;;1.37;;
4806;SDS011;2417;52.482;13.432;2023-12-22T03:19:48;11.07;;;1.50;;
4806;SDS011;2417;52.482;13.432;2023-12-22T03:22:16;4.73;;;1.47;;
4806;SDS011;2417;52.482;13.432;2023-12-22T03:24:44;5.27;;;1.30;;
4806;SDS011;2417;52.482;13.432;2023-12-22T03:27:12;11.70;;;1.80;;
4806;SDS011;2417;52.482;13.432;2023-12-22T03:29:44;8.67;;;1.40;;
4806;SDS011;2417;52.482;13.432;2023-12-22T03:32:12;10.13;;;1.70;;
4806;SDS011;2417;52.482;13.432;2023-12-22T03:34:40;4.83;;;1.20;;
4806;SDS011;2417;52.482;13.432;2023-12-22T03:37:08;14.70;;;1.60;;
4806;SDS011;2417;52.482;13.432;2023-12-22T03:39:36;7.57;;;1.60;;
4806;SDS011;2417;52.482;13.432;2023-12-22T03:42:05;10.10;;;1.33;;
4806;SDS011;2417;52.482;13.432;2023-12-22T03:44:32;9.07;;;1.63;;
4806;SDS011;2417;52.482;13.432;2023-12-22T03:47:02;10.57;;;1.47;;
4806;SDS011;2417;52.482;13.432;2023-12-22T03:49:30;8.40;;;1.87;;
4806;SDS011;2417;52.482;13.432;2023-12-22T03:51:58;11.67;;;1.70;;
4806;SDS011;2417;52.482;13.432;2023-12-22T03:54:26;11.77;;;2.07;;
4806;SDS011;2417;52.482;13.432;2023-12-22T03:56:56;12.30;;;1.43;;
4806;SDS011;2417;52.482;13.432;2023-12-22T03:59:24;8.80;;;1.40;;
4806;SDS011;2417;52.482;13.432;2023-12-22T04:01:52;10.57;;;1.60;;
4806;SDS011;2417;52.482;13.432;2023-12-22T04:04:23;5.23;;;1.37;;
4806;SDS011;2417;52.482;13.432;2023-12-22T04:06:54;6.70;;;1.67;;
4806;SDS011;2417;52.482;13.432;2023-12-22T04:09:23;11.40;;;1.20;;
4806;SDS011;2417;52.482;13.432;2023-12-22T04:11:51;4.87;;;1.00;;
4806;SDS011;2417;52.482;13.432;2023-12-22T04:14:19;5.30;;;1.00;;
4806;SDS011;2417;52.482;13.432;2023-12-22T04:16:46;2.47;;;0.70;;
4806;SDS011;2417;52.482;13.432;2023-12-22T04:19:15;1.77;;;0.60;;
4806;SDS011;2417;52.482;13.432;2023-12-22T04:21:44;2.30;;;0.63;;
4806;SDS011;2417;52.482;13.432;2023-12-22T04:24:12;4.83;;;1.20;;
4806;SDS011;2417;52.482;13.432;2023-12-22T04:26:40;2.40;;;0.70;;
4806;SDS011;2417;52.482;13.432;2023-12-22T04:29:10;5.13;;;0.80;;
4806;SDS011;2417;52.482;13.432;2023-12-22T04:31:38;2.60;;;0.80;;
4806;SDS011;2417;52.482;13.432;2023-12-22T04:34:06;5.03;;;0.90;;
4806;SDS011;2417;52.482;13.432;2023-12-22T04:36:34;4.43;;;1.30;;
4806;SDS011;2417;52.482;13.432;2023-12-22T04:39:04;3.30;;;0.80;;
4806;SDS011;2417;52.482;13.432;2023-12-22T04:41:31;4.30;;;1.00;;
4806;SDS011;2417;52.482;13.432;2023-12-22T04:43:59;8.27;;;0.90;;
4806;SDS011;2417;52.482;13.432;2023-12-22T04:46:29;6.80;;;1.27;;
4806;SDS011;2417;52.482;13.432;2023-12-22T04:48:57;4.10;;;1.00;;
4806;SDS011;2417;52.482;13.432;2023-12-22T04:51:25;5.40;;;1.70;;
4806;SDS011;2417;52.482;13.432;2023-12-22T04:53:53;6.20;;;1.13;;
4806;SDS011;2417;52.482;13.432;2023-12-22T04:56:23;3.30;;;1.00;;
4806;SDS011;2417;52.482;13.432;2023-12-22T04:58:51;4.77;;;1.20;;
4806;SDS011;2417;52.482;13.432;2023-12-22T05:01:19;8.53;;;1.30;;
4806;SDS011;2417;52.482;13.432;2023-12-22T05:03:47;11.17;;;1.50;;
4806;SDS011;2417;52.482;13.432;2023-12-22T05:06:18;7.70;;;0.90;;
4806;SDS011;2417;52.482;13.432;2023-12-22T05:08:46;5.23;;;1.10;;
4806;SDS011;2417;52.482;13.432;2023-12-22T05:11:15;3.53;;;0.90;;
4806;SDS011;2417;52.482;13.432;2023-12-22T05:13:44;2.67;;;0.70;;
4806;SDS011;2417;52.482;13.432;2023-12-22T05:16:12;2.40;;;0.80;;
4806;SDS011;2417;52.482;13.432;2023-12-22T05:18:40;1.77;;;0.70;;
4806;SDS011;2417;52.482;13.432;2023-12-22T05:21:11;3.17;;;1.00;;
4806;SDS011;2417;52.482;13.432;2023-12-22T05:23:39;1.33;;;0.70;;
4806;SDS011;2417;52.482;13.432;2023-12-22T05:26:07;1.97;;;0.70;;
4806;SDS011;2417;52.482;13.432;2023-12-22T05:28:35;5.43;;;0.90;;
4806;SDS011;2417;52.482;13.432;2023-12-22T05:31:04;6.30;;;1.10;;
4806;SDS011;2417;52.482;13.432;2023-12-22T05:33:32;4.73;;;1.00;;
4806;SDS011;2417;52.482;13.432;2023-12-22T05:35:59;3.27;;;0.80;;
4806;SDS011;2417;52.482;13.432;2023-12-22T05:38:27;3.77;;;0.83;;
4806;SDS011;2417;52.482;13.432;2023-12-22T05:40:55;2.07;;;1.10;;
4806;SDS011;2417;52.482;13.432;2023-12-22T05:43:23;4.37;;;0.90;;
4806;SDS011;2417;52.482;13.432;2023-12-22T05:45:51;4.37;;;1.00;;
4806;SDS011;2417;52.482;13.432;2023-12-22T05:48:20;4.73;;;0.83;;
4806;SDS011;2417;52.482;13.432;2023-12-22T05:50:49;5.43;;;0.73;;
4806;SDS011;2417;52.482;13.432;2023-12-22T05:53:18;2.60;;;0.83;;
4806;SDS011;2417;52.482;13.432;2023-12-22T05:55:46;6.07;;;1.00;;
4806;SDS011;2417;52.482;13.432;2023-12-22T05:58:15;5.17;;;1.10;;
4806;SDS011;2417;52.482;13.432;2023-12-22T06:00:43;6.23;;;1.10;;
4806;SDS011;2417;52.482;13.432;2023-12-22T06:03:12;4.63;;;1.07;;
4806;SDS011;2417;52.482;13.432;2023-12-22T06:05:42;4.40;;;1.40;;
4806;SDS011;2417;52.482;13.432;2023-12-22T06:08:10;5.80;;;1.17;;
4806;SDS011;2417;52.482;13.432;2023-12-22T06:11:01;6.07;;;1.50;;
4806;SDS011;2417;52.482;13.432;2023-12-22T06:13:29;7.40;;;1.03;;
4806;SDS011;2417;52.482;13.432;2023-12-22T06:15:57;6.97;;;1.23;;
4806;SDS011;2417;52.482;13.432;2023-12-22T06:18:25;6.67;;;1.40;;
4806;SDS011;2417;52.482;13.432;2023-12-22T06:20:54;6.00;;;1.50;;
4806;SDS011;2417;52.482;13.432;2023-12-22T06:23:22;6.57;;;1.53;;
4806;SDS011;2417;52.482;13.432;2023-12-22T06:25:50;5.97;;;1.00;;
4806;SDS011;2417;52.482;13.432;2023-12-22T06:28:18;5.70;;;1.70;;
4806;SDS011;2417;52.482;13.432;2023-12-22T06:30:46;5.27;;;0.97;;
4806;SDS011;2417;52.482;13.432;2023-12-22T06:33:14;4.50;;;1.10;;
4806;SDS011;2417;52.482;13.432;2023-12-22T06:35:42;8.13;;;1.47;;
4806;SDS011;2417;52.482;13.432;2023-12-22T06:38:13;5.13;;;1.07;;
4806;SDS011;2417;52.482;13.432;2023-12-22T06:40:40;7.20;;;1.13;;
4806;SDS011;2417;52.482;13.432;2023-12-22T06:43:09;8.03;;;0.80;;
4806;SDS011;2417;52.482;13.432;2023-12-22T06:45:37;4.83;;;1.20;;
4806;SDS011;2417;52.482;13.432;2023-12-22T06:48:05;8.73;;;1.00;;
4806;SDS011;2417;52.482;13.432;2023-12-22T06:50:34;7.87;;;0.90;;
4806;SDS011;2417;52.482;13.432;2023-12-22T06:53:03;6.63;;;1.20;;
4806;SDS011;2417;52.482;13.432;2023-12-22T06:55:48;3.80;;;0.90;;
4806;SDS011;2417;52.482;13.432;2023-12-22T06:58:16;5.40;;;1.10;;
4806;SDS011;2417;52.482;13.432;2023-12-22T07:00:44;5.03;;;0.87;;
4806;SDS011;2417;52.482;13.432;2023-12-22T07:03:13;3.33;;;1.03;;
4806;SDS011;2417;52.482;13.432;2023-12-22T07:05:41;8.37;;;1.53;;
4806;SDS011;2417;52.482;13.432;2023-12-22T07:08:09;9.30;;;0.97;;
4806;SDS011;2417;52.482;13.432;2023-12-22T07:10:37;4.20;;;1.00;;
4806;SDS011;2417;52.482;13.432;2023-12-22T07:13:06;4.07;;;1.20;;
4806;SDS011;2417;52.482;13.432;2023-12-22T07:15:34;3.03;;;1.07;;
4806;SDS011;2417;52.482;13.432;2023-12-22T07:18:03;8.77;;;1.10;;
4806;SDS011;2417;52.482;13.432;2023-12-22T07:20:31;7.70;;;0.80;;
4806;SDS011;2417;52.482;13.432;2023-12-22T07:22:59;6.60;;;1.00;;
4806;SDS011;2417;52.482;13.432;2023-12-22T07:25:27;2.30;;;1.00;;
4806;SDS011;2417;52.482;13.432;2023-12-22T07:27:56;1.80;;;0.80;;
4806;SDS011;2417;52.482;13.432;2023-12-22T07:30:26;5.33;;;1.00;;
4806;SDS011;2417;52.482;13.432;2023-12-22T07:32:53;5.80;;;1.00;;
4806;SDS011;2417;52.482;13.432;2023-12-22T07:35:23;10.07;;;1.30;;
4806;SDS011;2417;52.482;13.432;2023-12-22T07:37:51;6.70;;;1.23;;
4806;SDS011;2417;52.482;13.432;2023-12-22T07:40:22;4.40;;;1.27;;
4806;SDS011;2417;52.482;13.432;2023-12-22T07:42:50;7.67;;;1.10;;
4806;SDS011;2417;52.482;13.432;2023-12-22T07:45:18;8.10;;;1.40;;
4806;SDS011;2417;52.482;13.432;2023-12-22T07:47:47;5.73;;;1.17;;
4806;SDS011;2417;52.482;13.432;2023-12-22T07:50:16;6.20;;;1.73;;
4806;SDS011;2417;52.482;13.432;2023-12-22T07:52:46;5.00;;;1.33;;
4806;SDS011;2417;52.482;13.432;2023-12-22T07:55:14;17.33;;;1.10;;
4806;SDS011;2417;52.482;13.432;2023-12-22T07:57:42;4.70;;;1.03;;
4806;SDS011;2417;52.482;13.432;2023-12-22T08:00:10;9.40;;;1.93;;
4806;SDS011;2417;52.482;13.432;2023-12-22T08:02:38;6.10;;;1.43;;
4806;SDS011;2417;52.482;13.432;2023-12-22T08:05:08;7.33;;;1.70;;
4806;SDS011;2417;52.482;13.432;2023-12-22T08:07:36;6.00;;;1.20;;
4806;SDS011;2417;52.482;13.432;2023-12-22T08:10:05;8.70;;;1.73;;
4806;SDS011;2417;52.482;13.432;2023-12-22T08:12:33;9.93;;;1.83;;
4806;SDS011;2417;52.482;13.432;2023-12-22T08:15:02;6.17;;;1.17;;
4806;SDS011;2417;52.482;13.432;2023-12-22T08:17:30;7.33;;;1.40;;
4806;SDS011;2417;52.482;13.432;2023-12-22T08:19:58;4.27;;;1.00;;
4806;SDS011;2417;52.482;13.432;2023-12-22T08:22:39;4.37;;;0.70;;
4806;SDS011;2417;52.482;13.432;2023-12-22T08:25:12;4.80;;;0.73;;
4806;SDS011;2417;52.482;13.432;2023-12-22T08:27:40;1.53;;;0.87;;
4806;SDS011;2417;52.482;13.432;2023-12-22T08:30:08;4.20;;;0.80;;
4806;SDS011;2417;52.482;13.432;2023-12-22T08:32:36;5.07;;;1.00;;
4806;SDS011;2417;52.482;13.432;2023-12-22T08:35:05;6.80;;;0.90;;
4806;SDS011;2417;52.482;13.432;2023-12-22T08:37:34;5.47;;;1.00;;
4806;SDS011;2417;52.482;13.432;2023-12-22T08:40:05;4.50;;;0.90;;
4806;SDS011;2417;52.482;13.432;2023-12-22T08:42:33;7.23;;;1.57;;
4806;SDS011;2417;52.482;13.432;2023-12-22T08:45:01;11.00;;;1.23;;
4806;SDS011;2417;52.482;13.432;2023-12-22T08:47:32;11.27;;;1.93;;
4806;SDS011;2417;52.482;13.432;2023-12-22T08:50:00;6.40;;;1.03;;
4806;SDS011;2417;52.482;13.432;2023-12-22T08:52:31;5.90;;;1.10;;
4806;SDS011;2417;52.482;13.432;2023-12-22T08:55:00;7.53;;;1.27;;
4806;SDS011;2417;52.482;13.432;2023-12-22T08:57:29;6.93;;;1.70;;
4806;SDS011;2417;52.482;13.432;2023-12-22T08:59:58;17.13;;;1.93;;
4806;SDS011;2417;52.482;13.432;2023-12-22T09:02:26;7.97;;;1.50;;
4806;SDS011;2417;52.482;13.432;2023-12-22T09:04:54;9.00;;;1.70;;
4806;SDS011;2417;52.482;13.432;2023-12-22T09:07:22;6.93;;;1.07;;
4806;SDS011;2417;52.482;13.432;2023-12-22T09:09:51;15.53;;;1.87;;
4806;SDS011;2417;52.482;13.432;2023-12-22T09:12:19;12.03;;;1.83;;
4806;SDS011;2417;52.482;13.432;2023-12-22T09:14:49;9.23;;;1.50;;
4806;SDS011;2417;52.482;13.432;2023-12-22T09:17:17;10.53;;;2.30;;
4806;SDS011;2417;52.482;13.432;2023-12-22T09:19:45;8.13;;;1.30;;
4806;SDS011;2417;52.482;13.432;2023-12-22T09:22:13;15.27;;;1.47;;
4806;SDS011;2417;52.482;13.432;2023-12-22T09:24:40;6.70;;;1.20;;
4806;SDS011;2417;52.482;13.432;2023-12-22T09:27:08;11.03;;;1.70;;
4806;SDS011;2417;52.482;13.432;2023-12-22T09:29:36;6.77;;;1.20;;
4806;SDS011;2417;52.482;13.432;2023-12-22T09:32:06;8.40;;;1.30;;
4806;SDS011;2417;52.482;13.432;2023-12-22T09:34:34;7.50;;;1.40;;
4806;SDS011;2417;52.482;13.432;2023-12-22T09:37:02;10.63;;;1.90;;
4806;SDS011;2417;52.482;13.432;2023-12-22T09:39:32;13.50;;;1.40;;
4806;SDS011;2417;52.482;13.432;2023-12-22T09:42:00;10.50;;;1.87;;
4806;SDS011;2417;52.482;13.432;2023-12-22T09:44:29;10.70;;;1.60;;
4806;SDS011;2417;52.482;13.432;2023-12-22T09:47:00;13.50;;;1.83;;
4806;SDS011;2417;52.482;13.432;2023-12-22T09:49:32;14.23;;;2.00;;
4806;SDS011;2417;52.482;13.432;2023-12-22T09:52:01;17.03;;;3.07;;
4806;SDS011;2417;52.482;13.432;2023-12-22T09:54:30;7.10;;;1.53;;
4806;SDS011;2417;52.482;13.432;2023-12-22T09:56:58;13.50;;;1.97;;
4806;SDS011;2417;52.482;13.432;2023-12-22T09:59:44;8.13;;;1.70;;
4806;SDS011;2417;52.482;13.432;2023-12-22T10:02:13;10.30;;;1.40;;
4806;SDS011;2417;52.482;13.432;2023-12-22T10:04:42;7.90;;;1.90;;
4806;SDS011;2417;52.482;13.432;2023-12-22T10:07:10;11.37;;;2.00;;
4806;SDS011;2417;52.482;13.432;2023-12-22T10:09:41;15.80;;;3.67;;
4806;SDS011;2417;52.482;13.432;2023-12-22T10:12:09;12.23;;;2.07;;
4806;SDS011;2417;52.482;13.432;2023-12-22T10:14:38;10.80;;;1.97;;
4806;SDS011;2417;52.482;13.432;2023-12-22T10:17:08;11.10;;;1.87;;
4806;SDS011;2417;52.482;13.432;2023-12-22T10:19:36;16.43;;;2.40;;
4806;SDS011;2417;52.482;13.432;2023-12-22T10:22:05;9.23;;;2.00;;
4806;SDS011;2417;52.482;13.432;2023-12-22T10:24:36;9.70;;;1.80;;
4806;SDS011;2417;52.482;13.432;2023-12-22T10:27:04;12.23;;;2.40;;
4806;SDS011;2417;52.482;13.432;2023-12-22T10:29:33;12.47;;;2.30;;
4806;SDS011;2417;52.482;13.432;2023-12-22T10:32:00;14.43;;;2.60;;
4806;SDS011;2417;52.482;13.432;2023-12-22T10:34:33;10.30;;;2.00;;
4806;SDS011;2417;52.482;13.432;2023-12-22T10:37:01;11.63;;;1.70;;
4806;SDS011;2417;52.482;13.432;2023-12-22T10:39:31;10.80;;;2.50;;
4806;SDS011;2417;52.482;13.432;2023-12-22T10:41:59;13.77;;;1.80;;
4806;SDS011;2417;52.482;13.432;2023-12-22T10:44:28;14.97;;;2.20;;
4806;SDS011;2417;52.482;13.432;2023-12-22T10:46:56;8.60;;;2.13;;
4806;SDS011;2417;52.482;13.432;2023-12-22T10:49:26;19.30;;;2.17;;
4806;SDS011;2417;52.482;13.432;2023-12-22T10:51:54;12.67;;;2.67;;
4806;SDS011;2417;52.482;13.432;2023-12-22T10:54:23;14.13;;;2.00;;
4806;SDS011;2417;52.482;13.432;2023-12-22T10:56:53;9.67;;;1.63;;
4806;SDS011;2417;52.482;13.432;2023-12-22T10:59:23;12.93;;;1.93;;
4806;SDS011;2417;52.482;13.432;2023-12-22T11:01:51;7.07;;;1.73;;
4806;SDS011;2417;52.482;13.432;2023-12-22T11:04:20;10.47;;;1.80;;
4806;SDS011;2417;52.482;13.432;2023-12-22T11:06:50;13.20;;;1.43;;
4806;SDS011;2417;52.482;13.432;2023-12-22T11:09:20;7.33;;;1.30;;
4806;SDS011;2417;52.482;13.432;2023-12-22T11:11:49;6.93;;;1.67;;
4806;SDS011;2417;52.482;13.432;2023-12-22T11:14:19;14.00;;;1.67;;
4806;SDS011;2417;52.482;13.432;2023-12-22T11:16:48;11.50;;;1.80;;
4806;SDS011;2417;52.482;13.432;2023-12-22T11:19:17;12.57;;;2.47;;
4806;SDS011;2417;52.482;13.432;2023-12-22T11:21:46;9.00;;;2.03;;
4806;SDS011;2417;52.482;13.432;2023-12-22T11:24:14;12.90;;;2.00;;
4806;SDS011;2417;52.482;13.432;2023-12-22T11:26:43;9.87;;;1.73;;
4806;SDS011;2417;52.482;13.432;2023-12-22T11:29:14;7.97;;;1.97;;
4806;SDS011;2417;52.482;13.432;2023-12-22T11:31:43;10.93;;;1.67;;
4806;SDS011;2417;52.482;13.432;2023-12-22T11:34:12;8.40;;;1.77;;
4806;SDS011;2417;52.482;13.432;2023-12-22T11:36:45;8.87;;;2.40;;
4806;SDS011;2417;52.482;13.432;2023-12-22T11:39:15;13.83;;;1.90;;
4806;SDS011;2417;52.482;13.432;2023-12-22T11:41:43;6.40;;;1.40;;
4806;SDS011;2417;52.482;13.432;2023-12-22T11:44:12;10.13;;;1.97;;
4806;SDS011;2417;52.482;13.432;2023-12-22T11:46:40;7.40;;;1.30;;
4806;SDS011;2417;52.482;13.432;2023-12-22T11:49:12;7.63;;;1.10;;
4806;SDS011;2417;52.482;13.432;2023-12-22T11:51:42;9.33;;;1.60;;
4806;SDS011;2417;52.482;13.432;2023-12-22T11:56:59;18.40;;;4.13;;
4806;SDS011;2417;52.482;13.432;2023-12-22T11:59:27;7.00;;;1.67;;
4806;SDS011;2417;52.482;13.432;2023-12-22T12:01:55;11.13;;;1.80;;
4806;SDS011;2417;52.482;13.432;2023-12-22T12:04:27;9.20;;;1.90;;
4806;SDS011;2417;52.482;13.432;2023-12-22T12:06:56;4.80;;;1.60;;
4806;SDS011;2417;52.482;13.432;2023-12-22T12:09:44;17.00;;;1.83;;
4806;SDS011;2417;52.482;13.432;2023-12-22T12:12:12;6.40;;;1.70;;
4806;SDS011;2417;52.482;13.432;2023-12-22T12:14:41;8.50;;;1.70;;
4806;SDS011;2417;52.482;13.432;2023-12-22T12:17:09;6.07;;;1.37;;
4806;SDS011;2417;52.482;13.432;2023-12-22T12:19:39;10.53;;;1.90;;
4806;SDS011;2417;52.482;13.432;2023-12-22T12:22:10;10.83;;;1.50;;
4806;SDS011;2417;52.482;13.432;2023-12-22T12:24:38;6.40;;;1.40;;
4806;SDS011;2417;52.482;13.432;2023-12-22T12:27:06;12.43;;;1.57;;
4806;SDS011;2417;52.482;13.432;2023-12-22T12:29:35;10.77;;;1.67;;
4806;SDS011;2417;52.482;13.432;2023-12-22T12:32:04;8.60;;;1.80;;
4806;SDS011;2417;52.482;13.432;2023-12-22T12:34:33;6.77;;;1.73;;
4806;SDS011;2417;52.482;13.432;2023-12-22T12:37:05;5.37;;;1.80;;
4806;SDS011;2417;52.482;13.432;2023-12-22T12:39:34;6.03;;;1.20;;
4806;SDS011;2417;52.482;13.432;2023-12-22T12:42:02;6.33;;;1.93;;
4806;SDS011;2417;52.482;13.432;2023-12-22T12:44:35;12.10;;;1.60;;
4806;SDS011;2417;52.482;13.432;2023-12-22T12:47:10;6.40;;;1.57;;
4806;SDS011;2417;52.482;13.432;2023-12-22T12:49:39;6.27;;;1.53;;
4806;SDS011;2417;52.482;13.432;2023-12-22T12:52:12;6.23;;;1.80;;
4806;SDS011;2417;52.482;13.432;2023-12-22T12:54:41;8.37;;;1.77;;
4806;SDS011;2417;52.482;13.432;2023-12-22T12:57:13;10.27;;;1.87;;
4806;SDS011;2417;52.482;13.432;2023-12-22T12:59:44;18.30;;;2.73;;
4806;SDS011;2417;52.482;13.432;2023-12-22T13:02:12;11.20;;;1.87;;
4806;SDS011;2417;52.482;13.432;2023-12-22T13:04:40;8.27;;;1.80;;
4806;SDS011;2417;52.482;13.432;2023-12-22T13:07:09;11.23;;;1.80;;
4806;SDS011;2417;52.482;13.432;2023-12-22T13:09:41;13.83;;;2.00;;
4806;SDS011;2417;52.482;13.432;2023-12-22T13:12:12;8.43;;;1.60;;
4806;SDS011;2417;52.482;13.432;2023-12-22T13:14:40;6.60;;;1.57;;
4806;SDS011;2417;52.482;13.432;2023-12-22T13:17:08;6.10;;;1.77;;
4806;SDS011;2417;52.482;13.432;2023-12-22T13:19:37;13.07;;;2.37;;
4806;SDS011;2417;52.482;13.432;2023-12-22T13:22:06;10.03;;;1.67;;
4806;SDS011;2417;52.482;13.432;2023-12-22T13:24:34;13.67;;;2.07;;
4806;SDS011;2417;52.482;13.432;2023-12-22T13:27:03;11.27;;;1.57;;
4806;SDS011;2417;52.482;13.432;2023-12-22T13:29:43;9.77;;;1.77;;
4806;SDS011;2417;52.482;13.432;2023-12-22T13:32:15;12.33;;;1.80;;
4806;SDS011;2417;52.482;13.432;2023-12-22T13:34:50;12.17;;;1.53;;
4806;SDS011;2417;52.482;13.432;2023-12-22T13:37:19;7.80;;;1.93;;
4806;SDS011;2417;52.482;13.432;2023-12-22T13:39:48;11.03;;;1.73;;
4806;SDS011;2417;52.482;13.432;2023-12-22T13:42:19;11.13;;;1.93;;
4806;SDS011;2417;52.482;13.432;2023-12-22T13:44:49;10.00;;;1.90;;
4806;SDS011;2417;52.482;13.432;2023-12-22T13:47:19;6.87;;;1.80;;
4806;SDS011;2417;52.482;13.432;2023-12-22T13:49:47;12.37;;;2.00;;
4806;SDS011;2417;52.482;13.432;2023-12-22T13:52:26;10.70;;;1.37;;
4806;SDS011;2417;52.482;13.432;2023-12-22T13:54:54;11.70;;;1.83;;
4806;SDS011;2417;52.482;13.432;2023-12-22T13:57:26;11.03;;;1.83;;
4806;SDS011;2417;52.482;13.432;2023-12-22T13:59:54;15.53;;;2.43;;
4806;SDS011;2417;52.482;13.432;2023-12-22T14:02:22;11.93;;;1.67;;
4806;SDS011;2417;52.482;13.432;2023-12-22T14:04:51;7.20;;;2.37;;
4806;SDS011;2417;52.482;13.432;2023-12-22T14:07:19;13.43;;;1.97;;
4806;SDS011;2417;52.482;13.432;2023-12-22T14:09:48;10.97;;;2.03;;
4806;SDS011;2417;52.482;13.432;2023-12-22T14:12:15;9.43;;;1.60;;
4806;SDS011;2417;52.482;13.432;2023-12-22T14:14:56;6.87;;;1.70;;
4806;SDS011;2417;52.482;13.432;2023-12-22T14:17:24;5.57;;;1.47;;
4806;SDS011;2417;52.482;13.432;2023-12-22T14:19:55;5.40;;;1.20;;
4806;SDS011;2417;52.482;13.432;2023-12-22T14:22:24;7.97;;;1.73;;
4806;SDS011;2417;52.482;13.432;2023-12-22T14:24:53;10.40;;;1.57;;
4806;SDS011;2417;52.482;13.432;2023-12-22T14:27:22;11.63;;;1.20;;
4806;SDS011;2417;52.482;13.432;2023-12-22T14:29:51;7.83;;;1.67;;
4806;SDS011;2417;52.482;13.432;2023-12-22T14:32:20;9.57;;;1.50;;
4806;SDS011;2417;52.482;13.432;2023-12-22T14:34:49;3.73;;;1.27;;
4806;SDS011;2417;52.482;13.432;2023-12-22T14:37:17;4.90;;;1.20;;
4806;SDS011;2417;52.482;13.432;2023-12-22T14:39:46;6.93;;;1.33;;
4806;SDS011;2417;52.482;13.432;2023-12-22T14:42:14;6.77;;;1.40;;
4806;SDS011;2417;52.482;13.432;2023-12-22T14:44:43;11.80;;;1.40;;
4806;SDS011;2417;52.482;13.432;2023-12-22T14:47:11;5.57;;;1.87;;
4806;SDS011;2417;52.482;13.432;2023-12-22T14:49:41;4.97;;;1.13;;
4806;SDS011;2417;52.482;13.432;2023-12-22T14:52:10;3.50;;;1.27;;
4806;SDS011;2417;52.482;13.432;2023-12-22T14:54:37;7.50;;;1.37;;
4806;SDS011;2417;52.482;13.432;2023-12-22T14:57:05;7.13;;;1.20;;
4806;SDS011;2417;52.482;13.432;2023-12-22T14:59:33;5.43;;;1.03;;
4806;SDS011;2417;52.482;13.432;2023-12-22T15:02:01;9.33;;;1.47;;
4806;SDS011;2417;52.482;13.432;2023-12-22T15:04:31;14.20;;;1.63;;
4806;SDS011;2417;52.482;13.432;2023-12-22T15:07:00;7.27;;;1.90;;
4806;SDS011;2417;52.482;13.432;2023-12-22T15:09:29;7.53;;;1.57;;